Sao Goncalo do Para, Brazil
Current Conditions -  °F | °C
As of 7:34 PM on Thursday 18 Dec 2014 (Local Time) from SBPR Reporting Station
Few Clouds Few Clouds  
Wind Chill: 81°   Ceiling: Unl
Heat Index: 81°   Visibility: 6mi
Dew Point: 59°   Wind: 9mph
Humidity: 48%   Direction: 110°ESE
Pressure: 29.91"   Gusts: NA
Location:  19.98°S, 44.86°W
Report Text: SBPR 182134Z 11008KT 9999 FEW030 27/15 Q1013
Loading
Personal Weather Stations






























Interactive Weather Map New forecast layout! Learn more

10-Day Weather Forecast

Advertisements
Track Severe Weather on mobile